createdAt,value
2018-11-13T00:00:57.284Z,99874.00
2018-11-13T00:02:00.794Z,99878.00
2018-11-13T00:03:04.636Z,99880.00
2018-11-13T00:04:08.236Z,99878.00
2018-11-13T00:05:11.875Z,99876.00
2018-11-13T00:06:15.936Z,99882.00
2018-11-13T00:07:19.463Z,99888.00
2018-11-13T00:08:23.326Z,99878.00
2018-11-13T00:09:26.891Z,99871.00
2018-11-13T00:10:29.965Z,99864.00
2018-11-13T00:11:33.643Z,99858.00
2018-11-13T00:12:37.378Z,99860.00
2018-11-13T00:13:41.619Z,99863.00
2018-11-13T00:14:45.482Z,99868.00
2018-11-13T00:15:49.069Z,99865.00
2018-11-13T00:16:52.971Z,99861.00
2018-11-13T00:17:56.687Z,99864.00
2018-11-13T00:19:00.387Z,99859.00
2018-11-13T00:20:04.098Z,99852.00
2018-11-13T00:21:07.162Z,99853.00
2018-11-13T00:22:10.927Z,99845.00
2018-11-13T00:23:14.540Z,99842.00
2018-11-13T00:24:18.315Z,99847.00
2018-11-13T00:25:22.472Z,99852.00
2018-11-13T00:26:25.557Z,99855.00
2018-11-13T00:27:29.271Z,99854.00
2018-11-13T00:28:33.148Z,99859.00
2018-11-13T00:29:36.847Z,99868.00
2018-11-13T00:30:40.148Z,99873.00
2018-11-13T00:31:43.859Z,99874.00
2018-11-13T00:32:47.646Z,99883.00
2018-11-13T00:33:51.263Z,99892.00
2018-11-13T00:34:54.929Z,99898.00
2018-11-13T00:35:58.438Z,99900.00
2018-11-13T00:37:02.149Z,99899.00
2018-11-13T00:38:05.846Z,99905.00
2018-11-13T00:39:09.780Z,99911.00
2018-11-13T00:40:13.923Z,99910.00
2018-11-13T00:41:17.623Z,99922.00
2018-11-13T00:42:21.318Z,99923.00
2018-11-13T00:43:24.899Z,99914.00
2018-11-13T00:44:28.558Z,99903.00
2018-11-13T00:45:32.335Z,99897.00
2018-11-13T00:46:35.926Z,99896.00
2018-11-13T00:47:39.681Z,99903.00
2018-11-13T00:48:43.466Z,99902.00
2018-11-13T00:49:46.965Z,99904.00
2018-11-13T00:50:50.746Z,99899.00
2018-11-13T00:51:54.261Z,99901.00
2018-11-13T00:52:57.975Z,99902.00
2018-11-13T00:54:01.541Z,99894.00
2018-11-13T00:55:05.611Z,99893.00
2018-11-13T00:56:09.159Z,99893.00
2018-11-13T00:57:12.927Z,99894.00
2018-11-13T00:58:16.622Z,99893.00
2018-11-13T00:59:20.310Z,99889.00
2018-11-13T01:00:23.910Z,99890.00
2018-11-13T01:01:27.804Z,99883.00
2018-11-13T01:02:31.383Z,99883.00
2018-11-13T01:03:35.098Z,99875.00
2018-11-13T01:04:38.761Z,99882.00
2018-11-13T01:05:42.330Z,99881.00
2018-11-13T01:06:46.161Z,99876.00
2018-11-13T01:07:50.708Z,99875.00
2018-11-13T01:08:54.070Z,99868.00
2018-11-13T01:09:57.992Z,99873.00
2018-11-13T01:11:01.684Z,99881.00
2018-11-13T01:12:05.471Z,99882.00
2018-11-13T01:13:08.985Z,99894.00
2018-11-13T01:14:12.731Z,99899.00
2018-11-13T01:15:18.024Z,99903.00
2018-11-13T01:16:21.983Z,99898.00
2018-11-13T01:17:25.547Z,99901.00
2018-11-13T01:18:29.371Z,99905.00
2018-11-13T01:19:32.935Z,99903.00
2018-11-13T01:20:36.737Z,99904.00
2018-11-13T01:21:40.217Z,99909.00
2018-11-13T01:22:43.660Z,99907.00
2018-11-13T01:23:47.494Z,99910.00
2018-11-13T01:24:50.985Z,99908.00
2018-11-13T01:25:54.925Z,99905.00
2018-11-13T01:26:58.579Z,99905.00
2018-11-13T01:28:02.184Z,99907.00
2018-11-13T01:30:14.390Z,99925.00
2018-11-13T01:31:17.789Z,99940.00
2018-11-13T01:32:21.312Z,99934.00
2018-11-13T01:33:25.072Z,99936.00
2018-11-13T01:34:28.589Z,99932.00
2018-11-13T01:35:32.178Z,99930.00
2018-11-13T01:36:35.937Z,99941.00
2018-11-13T01:37:39.536Z,99943.00
2018-11-13T01:38:43.236Z,99942.00
2018-11-13T01:39:46.873Z,99946.00
2018-11-13T01:40:50.874Z,99950.00
2018-11-13T01:41:54.458Z,99952.00
2018-11-13T01:42:58.320Z,99947.00
2018-11-13T01:44:01.828Z,99952.00
2018-11-13T01:45:05.678Z,99952.00
2018-11-13T01:46:09.289Z,99959.00
2018-11-13T01:47:12.812Z,99964.00
2018-11-13T01:48:16.665Z,99966.00
2018-11-13T01:49:20.234Z,99967.00
2018-11-13T01:50:23.875Z,99959.00
2018-11-13T01:51:27.436Z,99961.00
2018-11-13T01:52:31.227Z,99948.00
2018-11-13T01:53:34.976Z,99942.00
2018-11-13T01:54:38.843Z,99941.00
2018-11-13T01:55:42.415Z,99936.00
2018-11-13T01:56:46.307Z,99935.00
2018-11-13T01:57:49.918Z,99933.00
2018-11-13T01:58:53.709Z,99923.00
2018-11-13T01:59:57.404Z,99931.00
2018-11-13T02:01:00.979Z,99934.00
2018-11-13T02:02:04.623Z,99927.00
2018-11-13T02:03:08.230Z,99814.00
2018-11-13T02:04:11.372Z,99921.00
2018-11-13T02:05:14.464Z,99919.00
2018-11-13T02:06:18.153Z,99918.00
2018-11-13T02:07:21.630Z,99919.00
2018-11-13T02:08:25.299Z,99927.00
2018-11-13T02:09:28.897Z,99926.00
2018-11-13T02:10:32.475Z,99923.00
2018-11-13T02:11:36.220Z,99912.00
2018-11-13T02:12:39.888Z,99916.00
2018-11-13T02:13:43.590Z,99908.00
2018-11-13T02:14:47.168Z,99911.00
2018-11-13T02:15:50.957Z,99908.00
2018-11-13T02:16:54.659Z,99901.00
2018-11-13T02:17:58.164Z,99901.00
2018-11-13T02:19:01.861Z,99898.00
2018-11-13T02:20:05.446Z,99892.00
2018-11-13T02:21:09.818Z,99888.00
2018-11-13T02:22:13.983Z,99886.00
2018-11-13T02:23:17.593Z,99885.00
2018-11-13T02:24:21.306Z,99884.00
2018-11-13T02:25:24.735Z,99884.00
2018-11-13T02:26:28.406Z,99884.00
2018-11-13T02:27:32.195Z,99885.00
2018-11-13T02:28:36.089Z,99890.00
2018-11-13T02:29:39.707Z,99885.00
2018-11-13T02:30:43.582Z,99890.00
2018-11-13T02:31:47.503Z,99899.00
2018-11-13T02:32:51.206Z,99896.00
2018-11-13T02:33:54.685Z,99900.00
2018-11-13T02:34:58.363Z,99904.00
2018-11-13T02:36:02.055Z,99908.00
2018-11-13T02:37:05.497Z,99915.00
2018-11-13T02:38:09.163Z,99923.00
2018-11-13T02:39:12.981Z,99929.00
2018-11-13T02:40:16.846Z,99925.00
2018-11-13T02:41:20.379Z,99932.00
2018-11-13T02:42:24.135Z,99933.00
2018-11-13T02:43:27.750Z,99940.00
2018-11-13T02:44:31.623Z,99946.00
2018-11-13T02:45:35.106Z,99953.00
2018-11-13T02:46:39.111Z,99952.00
2018-11-13T02:47:42.948Z,99956.00
2018-11-13T02:48:47.529Z,99953.00
2018-11-13T02:49:51.307Z,99959.00
2018-11-13T02:50:54.876Z,99965.00
2018-11-13T02:51:58.710Z,99974.00
2018-11-13T02:53:02.223Z,99970.00
2018-11-13T02:54:06.199Z,99976.00
2018-11-13T02:55:09.879Z,99978.00
2018-11-13T02:56:13.690Z,99980.00
2018-11-13T02:57:17.262Z,99979.00
2018-11-13T02:58:21.076Z,99981.00
2018-11-13T02:59:24.659Z,99986.00
2018-11-13T03:00:28.438Z,99985.00
2018-11-13T03:01:32.030Z,99989.00
2018-11-13T03:02:35.343Z,99987.00
2018-11-13T03:03:39.032Z,99985.00
2018-11-13T03:04:42.451Z,99990.00
2018-11-13T03:05:45.923Z,99995.00
2018-11-13T03:06:49.799Z,100003.00
2018-11-13T03:07:53.302Z,100001.00
2018-11-13T03:08:56.406Z,100002.00
2018-11-13T03:10:00.444Z,100009.00
2018-11-13T03:11:04.004Z,100006.00
2018-11-13T03:12:08.572Z,100016.00
2018-11-13T03:13:12.459Z,100011.00
2018-11-13T03:14:16.032Z,100011.00
2018-11-13T03:15:20.220Z,100011.00
2018-11-13T03:16:23.782Z,100012.00
2018-11-13T03:17:27.558Z,100013.00
2018-11-13T03:18:31.169Z,100006.00
2018-11-13T03:19:35.133Z,100003.00
2018-11-13T03:20:38.610Z,99998.00
2018-11-13T03:21:42.299Z,100001.00
2018-11-13T03:22:46.452Z,100000.00
2018-11-13T03:23:50.331Z,100005.00
2018-11-13T03:24:54.050Z,100012.00
2018-11-13T03:25:57.102Z,100014.00
2018-11-13T03:27:00.926Z,100007.00
2018-11-13T03:28:04.587Z,100007.00
2018-11-13T03:29:08.297Z,100011.00
2018-11-13T03:30:11.863Z,100005.00
2018-11-13T03:31:15.589Z,100009.00
2018-11-13T03:32:19.134Z,100011.00
2018-11-13T03:33:22.545Z,100005.00
2018-11-13T03:34:26.019Z,100002.00
2018-11-13T03:35:29.500Z,100004.00
2018-11-13T03:36:33.022Z,100003.00
2018-11-13T03:37:36.836Z,100004.00
2018-11-13T03:38:40.511Z,100005.00
2018-11-13T03:39:43.889Z,100009.00
2018-11-13T03:40:47.474Z,100010.00
2018-11-13T03:41:50.989Z,100009.00
2018-11-13T03:42:54.783Z,100008.00
2018-11-13T03:43:58.478Z,100011.00
2018-11-13T03:45:02.275Z,100009.00
2018-11-13T03:46:06.377Z,100004.00
2018-11-13T03:47:10.187Z,100003.00
2018-11-13T03:48:13.794Z,100002.00
2018-11-13T03:49:17.471Z,100001.00
2018-11-13T03:50:21.972Z,99996.00
2018-11-13T03:51:25.675Z,100002.00
2018-11-13T03:52:29.645Z,99459.00
2018-11-13T03:53:33.071Z,99998.00
2018-11-13T03:54:37.877Z,99992.00
2018-11-13T03:55:41.651Z,99993.00
2018-11-13T03:56:45.165Z,99990.00
2018-11-13T03:57:49.426Z,99990.00
2018-11-13T03:58:52.947Z,99986.00
2018-11-13T03:59:56.650Z,99984.00
2018-11-13T04:01:00.221Z,99984.00
2018-11-13T04:02:04.115Z,99985.00
2018-11-13T04:03:07.532Z,99979.00
2018-11-13T04:04:14.933Z,99978.00
2018-11-13T04:05:19.220Z,99972.00
2018-11-13T04:06:22.875Z,99979.00
2018-11-13T04:07:26.988Z,99973.00
2018-11-13T04:08:30.623Z,99973.00
2018-11-13T04:09:34.262Z,99974.00
2018-11-13T04:10:37.858Z,99977.00
2018-11-13T04:11:41.687Z,99969.00
2018-11-13T04:12:45.428Z,99959.00
2018-11-13T04:13:49.149Z,99958.00
2018-11-13T04:14:52.856Z,99956.00
2018-11-13T04:15:56.639Z,99953.00
2018-11-13T04:17:00.225Z,99956.00
2018-11-13T04:18:04.011Z,99955.00
2018-11-13T04:19:07.846Z,99952.00
2018-11-13T04:20:11.739Z,99947.00
2018-11-13T04:21:15.331Z,99943.00
2018-11-13T04:22:19.112Z,99946.00
2018-11-13T04:23:22.715Z,99940.00
2018-11-13T04:24:26.611Z,99937.00
2018-11-13T04:25:30.178Z,99929.00
2018-11-13T04:26:34.088Z,99931.00
2018-11-13T04:27:37.587Z,99929.00
2018-11-13T04:28:41.451Z,99923.00
2018-11-13T04:29:44.676Z,99928.00
2018-11-13T04:30:48.318Z,99926.00
2018-11-13T04:31:52.194Z,99926.00
2018-11-13T04:32:55.835Z,99930.00
2018-11-13T04:33:59.535Z,99925.00
2018-11-13T04:35:03.039Z,99918.00
2018-11-13T04:36:06.697Z,99919.00
2018-11-13T04:37:09.770Z,99920.00
2018-11-13T04:38:13.256Z,99924.00
2018-11-13T04:39:16.681Z,99927.00
2018-11-13T04:40:21.330Z,99916.00
2018-11-13T04:41:25.097Z,99925.00
2018-11-13T04:42:28.500Z,99918.00
2018-11-13T04:43:32.465Z,99918.00
2018-11-13T04:44:36.050Z,99922.00
2018-11-13T04:45:40.058Z,99920.00
2018-11-13T04:46:43.654Z,99917.00
2018-11-13T04:47:48.181Z,99920.00
2018-11-13T04:48:51.955Z,99922.00
2018-11-13T04:49:55.649Z,99921.00
2018-11-13T04:50:59.552Z,99914.00
2018-11-13T04:52:03.134Z,99916.00
2018-11-13T04:53:06.916Z,99924.00
2018-11-13T04:54:10.535Z,99917.00
2018-11-13T04:55:14.540Z,99917.00
2018-11-13T04:56:18.131Z,99924.00
2018-11-13T04:57:21.924Z,99919.00
2018-11-13T04:58:25.504Z,99917.00
2018-11-13T04:59:29.279Z,99918.00
2018-11-13T05:00:32.992Z,99919.00
2018-11-13T05:01:36.874Z,99920.00
2018-11-13T05:02:40.926Z,99917.00
2018-11-13T05:03:44.598Z,99920.00
2018-11-13T05:04:48.197Z,99918.00
2018-11-13T05:05:52.154Z,99916.00
2018-11-13T05:06:56.294Z,99912.00
2018-11-13T05:08:00.049Z,99927.00
2018-11-13T05:09:04.811Z,99929.00
2018-11-13T05:10:08.636Z,99934.00
2018-11-13T05:11:12.923Z,99935.00
2018-11-13T05:12:16.865Z,99945.00
2018-11-13T05:13:20.713Z,99944.00
2018-11-13T05:14:24.217Z,99943.00
2018-11-13T05:15:28.091Z,99954.00
2018-11-13T05:16:31.696Z,99954.00
2018-11-13T05:17:35.473Z,99957.00
2018-11-13T05:18:39.300Z,99960.00
2018-11-13T05:19:43.212Z,99960.00
2018-11-13T05:20:46.815Z,99969.00
2018-11-13T05:21:51.469Z,99971.00
2018-11-13T05:22:55.209Z,99969.00
2018-11-13T05:23:58.786Z,99972.00
2018-11-13T05:25:02.680Z,99976.00
2018-11-13T05:26:06.178Z,99968.00
2018-11-13T05:27:10.151Z,99972.00
2018-11-13T05:28:13.727Z,99967.00
2018-11-13T05:29:17.510Z,99973.00
2018-11-13T05:30:22.211Z,99979.00
2018-11-13T05:31:25.777Z,99977.00
2018-11-13T05:32:29.559Z,99973.00
2018-11-13T05:33:33.494Z,99980.00
2018-11-13T05:34:37.109Z,99981.00
2018-11-13T05:35:40.631Z,99978.00
2018-11-13T05:36:44.396Z,99988.00
2018-11-13T05:37:48.334Z,99983.00
2018-11-13T05:38:52.133Z,99984.00
2018-11-13T05:39:55.699Z,99975.00
2018-11-13T05:40:59.107Z,99984.00
2018-11-13T05:42:02.579Z,99974.00
2018-11-13T05:43:06.965Z,99982.00
2018-11-13T05:44:10.938Z,99991.00
2018-11-13T05:45:15.649Z,99988.00
2018-11-13T05:46:19.483Z,99995.00
2018-11-13T05:47:22.934Z,99992.00
2018-11-13T05:48:26.700Z,99989.00
2018-11-13T05:49:31.091Z,99989.00
2018-11-13T05:50:34.783Z,99985.00
2018-11-13T05:51:38.182Z,99986.00
2018-11-13T05:52:42.267Z,99986.00
2018-11-13T05:53:45.670Z,99979.00
2018-11-13T05:54:49.259Z,99987.00
2018-11-13T05:55:52.822Z,99985.00
2018-11-13T05:56:56.722Z,99991.00
2018-11-13T05:58:00.331Z,99990.00
2018-11-13T05:59:04.221Z,99985.00
2018-11-13T06:00:07.802Z,99990.00
2018-11-13T06:01:10.866Z,99990.00
2018-11-13T06:02:14.675Z,99980.00
2018-11-13T06:03:18.282Z,99987.00
2018-11-13T06:04:22.029Z,99992.00
2018-11-13T06:05:25.473Z,99997.00
2018-11-13T06:06:28.498Z,99997.00
2018-11-13T06:07:32.061Z,100002.00
2018-11-13T06:08:35.700Z,100002.00
2018-11-13T06:09:39.219Z,100013.00
2018-11-13T06:10:42.514Z,100012.00
2018-11-13T06:11:45.575Z,100013.00
2018-11-13T06:12:49.159Z,100013.00
2018-11-13T06:13:52.998Z,100017.00
2018-11-13T06:14:56.771Z,100012.00
2018-11-13T06:16:00.477Z,100007.00
2018-11-13T06:17:03.481Z,100009.00
2018-11-13T06:18:07.257Z,100006.00
2018-11-13T06:19:10.838Z,99995.00
2018-11-13T06:20:15.534Z,99992.00
2018-11-13T06:21:19.351Z,99988.00
2018-11-13T06:22:22.414Z,99989.00
2018-11-13T06:23:25.923Z,99980.00
2018-11-13T06:24:29.679Z,99980.00
2018-11-13T06:25:33.399Z,99978.00
2018-11-13T06:26:37.204Z,99964.00
2018-11-13T06:27:41.381Z,99967.00
2018-11-13T06:28:44.964Z,99964.00
2018-11-13T06:29:48.499Z,99962.00
2018-11-13T06:30:52.272Z,99956.00
2018-11-13T06:31:55.789Z,99951.00
2018-11-13T06:32:59.641Z,99949.00
2018-11-13T06:34:03.283Z,99954.00
2018-11-13T06:35:07.265Z,99950.00
2018-11-13T06:36:11.396Z,99948.00
2018-11-13T06:37:15.099Z,99947.00
2018-11-13T06:38:19.047Z,99950.00
2018-11-13T06:39:22.730Z,99954.00
2018-11-13T06:40:26.754Z,99949.00
2018-11-13T06:41:30.353Z,99940.00
2018-11-13T06:42:33.924Z,99945.00
2018-11-13T06:43:37.544Z,99947.00
2018-11-13T06:44:41.132Z,99935.00
2018-11-13T06:45:44.807Z,99940.00
2018-11-13T06:46:48.467Z,99937.00
2018-11-13T06:47:52.499Z,99930.00
2018-11-13T06:48:56.066Z,99929.00
2018-11-13T06:49:59.889Z,99926.00
2018-11-13T06:51:03.473Z,99927.00
2018-11-13T06:52:07.351Z,99934.00
2018-11-13T06:53:10.950Z,99923.00
2018-11-13T06:54:14.864Z,99929.00
2018-11-13T06:55:27.054Z,99926.00
2018-11-13T06:56:30.739Z,99912.00
2018-11-13T06:57:35.092Z,99919.00
2018-11-13T06:58:39.034Z,99914.00
2018-11-13T06:59:42.529Z,99908.00
2018-11-13T07:00:45.982Z,99912.00
2018-11-13T07:01:49.745Z,99915.00
2018-11-13T07:02:53.230Z,99912.00
2018-11-13T07:03:56.887Z,99912.00
2018-11-13T07:05:00.788Z,99909.00
2018-11-13T07:06:04.503Z,99914.00
2018-11-13T07:07:08.203Z,99910.00
2018-11-13T07:08:12.090Z,99906.00
2018-11-13T07:09:15.562Z,99905.00
2018-11-13T07:10:20.330Z,99905.00
2018-11-13T07:11:24.298Z,99906.00
2018-11-13T07:12:27.908Z,99904.00
2018-11-13T07:13:31.600Z,99859.00
2018-11-13T07:14:35.195Z,99900.00
2018-11-13T07:15:38.680Z,99890.00
2018-11-13T07:16:42.166Z,99892.00
2018-11-13T07:17:46.716Z,99893.00
2018-11-13T07:18:50.090Z,99891.00
2018-11-13T07:19:53.933Z,99889.00
2018-11-13T07:20:57.621Z,99893.00
2018-11-13T07:22:01.427Z,99894.00
2018-11-13T07:23:05.000Z,99893.00
2018-11-13T07:24:08.482Z,99895.00
2018-11-13T07:25:12.234Z,99891.00
2018-11-13T07:26:15.806Z,99889.00
2018-11-13T07:27:19.575Z,99890.00
2018-11-13T07:28:23.207Z,99892.00
2018-11-13T07:29:27.091Z,99896.00
2018-11-13T07:30:30.833Z,99891.00
2018-11-13T07:31:34.592Z,99894.00
2018-11-13T07:32:38.271Z,99896.00
2018-11-13T07:33:42.149Z,99894.00
2018-11-13T07:34:45.826Z,99901.00
2018-11-13T07:35:49.583Z,99895.00
2018-11-13T07:36:53.822Z,99895.00
2018-11-13T07:38:00.144Z,99900.00
2018-11-13T07:39:03.971Z,99898.00
2018-11-13T07:40:07.637Z,99898.00
2018-11-13T07:41:11.222Z,99899.00
2018-11-13T07:42:15.004Z,99891.00
2018-11-13T07:43:18.581Z,99888.00
2018-11-13T07:44:22.366Z,99889.00
2018-11-13T07:45:26.070Z,99888.00
2018-11-13T07:46:30.022Z,99892.00
2018-11-13T07:47:33.659Z,99893.00
2018-11-13T07:48:37.346Z,99886.00
2018-11-13T07:49:40.726Z,99889.00
2018-11-13T07:50:44.172Z,99883.00
2018-11-13T07:51:47.940Z,99884.00
2018-11-13T07:52:51.535Z,99886.00
2018-11-13T07:53:55.469Z,99880.00
2018-11-13T07:54:59.126Z,99887.00
2018-11-13T07:56:02.556Z,99882.00
2018-11-13T07:57:06.840Z,99884.00
2018-11-13T07:58:10.708Z,99885.00
2018-11-13T07:59:14.314Z,99883.00
2018-11-13T08:00:18.586Z,99890.00
2018-11-13T08:01:22.122Z,99892.00
2018-11-13T08:02:25.912Z,99888.00
2018-11-13T08:03:29.594Z,99884.00
2018-11-13T08:04:33.671Z,99883.00
2018-11-13T08:05:37.203Z,99884.00
2018-11-13T08:06:40.903Z,99883.00
2018-11-13T08:07:44.566Z,99879.00
2018-11-13T08:08:48.359Z,99879.00
2018-11-13T08:09:51.962Z,99889.00
2018-11-13T08:10:55.732Z,99907.00
2018-11-13T08:11:59.343Z,99905.00
2018-11-13T08:13:03.204Z,99904.00
2018-11-13T08:14:06.828Z,99915.00
2018-11-13T08:15:10.962Z,99924.00
2018-11-13T08:16:14.917Z,99937.00
2018-11-13T08:17:18.495Z,99944.00
2018-11-13T08:18:21.950Z,99947.00
2018-11-13T08:19:25.399Z,99948.00
2018-11-13T08:20:28.917Z,99963.00
2018-11-13T08:21:32.078Z,99968.00
2018-11-13T08:22:35.686Z,99962.00
2018-11-13T08:23:39.485Z,99966.00
2018-11-13T08:24:43.048Z,99971.00
2018-11-13T08:25:46.899Z,99970.00
2018-11-13T08:26:50.119Z,99662.00
2018-11-13T08:27:53.741Z,99981.00
2018-11-13T08:28:57.487Z,99980.00
2018-11-13T08:30:01.013Z,99981.00
2018-11-13T08:31:04.922Z,99983.00
2018-11-13T08:32:08.036Z,99987.00
2018-11-13T08:33:11.522Z,99985.00
2018-11-13T08:34:15.369Z,99985.00
2018-11-13T08:35:18.884Z,99985.00
2018-11-13T08:36:22.896Z,99988.00
2018-11-13T08:37:26.107Z,99991.00
2018-11-13T08:38:29.637Z,99987.00
2018-11-13T08:39:33.224Z,99990.00
2018-11-13T08:40:36.295Z,99991.00
2018-11-13T08:41:39.799Z,99996.00
2018-11-13T08:42:43.389Z,100001.00
2018-11-13T08:43:47.252Z,100003.00
2018-11-13T08:44:51.279Z,99999.00
2018-11-13T08:45:54.859Z,99995.00
2018-11-13T08:46:58.667Z,99998.00
2018-11-13T08:48:02.224Z,100003.00
2018-11-13T08:49:06.156Z,100005.00
2018-11-13T08:50:09.832Z,100010.00
2018-11-13T08:51:13.244Z,100004.00
2018-11-13T08:52:16.939Z,100003.00
2018-11-13T08:53:20.387Z,100005.00
2018-11-13T08:54:24.294Z,100004.00
2018-11-13T08:55:27.984Z,100006.00
2018-11-13T08:56:31.911Z,100010.00
2018-11-13T08:57:35.847Z,100005.00
2018-11-13T08:58:39.530Z,100003.00
2018-11-13T08:59:43.125Z,100012.00
2018-11-13T09:00:47.003Z,100013.00
2018-11-13T09:01:50.481Z,100015.00
2018-11-13T09:02:54.174Z,100014.00
2018-11-13T09:03:57.934Z,100013.00
2018-11-13T09:05:01.627Z,100015.00
2018-11-13T09:06:05.269Z,100011.00
2018-11-13T09:07:08.788Z,100009.00
2018-11-13T09:08:12.519Z,100007.00
2018-11-13T09:09:16.624Z,100007.00
2018-11-13T09:10:20.754Z,100009.00
2018-11-13T09:11:24.555Z,100008.00
2018-11-13T09:12:28.193Z,100012.00
2018-11-13T09:13:32.010Z,100018.00
2018-11-13T09:14:35.506Z,100016.00
2018-11-13T09:15:38.947Z,100019.00
2018-11-13T09:16:42.711Z,100024.00
2018-11-13T09:17:46.112Z,100024.00
2018-11-13T09:18:49.647Z,100018.00
2018-11-13T09:19:53.067Z,100010.00
2018-11-13T09:20:57.299Z,100004.00
2018-11-13T09:22:01.036Z,100006.00
2018-11-13T09:23:04.743Z,100002.00
2018-11-13T09:24:08.560Z,100000.00
2018-11-13T09:25:13.868Z,99994.00
2018-11-13T09:26:17.468Z,99988.00
2018-11-13T09:27:21.068Z,99986.00
2018-11-13T09:28:24.791Z,99984.00
2018-11-13T09:29:28.363Z,99981.00
2018-11-13T09:30:32.536Z,99981.00
2018-11-13T09:31:35.992Z,99978.00
2018-11-13T09:32:39.943Z,99977.00
2018-11-13T09:33:43.492Z,99969.00
2018-11-13T09:34:47.279Z,99973.00
2018-11-13T09:35:51.004Z,99964.00
2018-11-13T09:36:54.299Z,99970.00
2018-11-13T09:37:57.891Z,99968.00
2018-11-13T09:39:01.489Z,99971.00
2018-11-13T09:40:05.197Z,99968.00
2018-11-13T09:41:08.690Z,99965.00
2018-11-13T09:42:12.566Z,99963.00
2018-11-13T09:43:16.159Z,99960.00
2018-11-13T09:44:20.058Z,99962.00
2018-11-13T09:45:23.703Z,99963.00
2018-11-13T09:46:27.618Z,99961.00
2018-11-13T09:47:31.160Z,99956.00
2018-11-13T09:48:34.962Z,99952.00
2018-11-13T09:49:38.510Z,99957.00
2018-11-13T09:50:41.989Z,99948.00
2018-11-13T09:51:45.627Z,99946.00
2018-11-13T09:52:49.969Z,99949.00
2018-11-13T09:53:53.805Z,99951.00
2018-11-13T09:54:57.719Z,99955.00
2018-11-13T09:56:01.301Z,99949.00
2018-11-13T09:57:05.087Z,99949.00
2018-11-13T09:58:08.580Z,99948.00
2018-11-13T09:59:12.126Z,99943.00
2018-11-13T10:00:17.075Z,99952.00
2018-11-13T10:01:20.854Z,99947.00
2018-11-13T10:02:24.738Z,99950.00
2018-11-13T10:03:28.562Z,99954.00
2018-11-13T10:04:32.297Z,99955.00
2018-11-13T10:05:38.510Z,99955.00
2018-11-13T10:06:41.936Z,99950.00
2018-11-13T10:07:46.327Z,99948.00
2018-11-13T10:08:49.752Z,99951.00
2018-11-13T10:09:53.563Z,99955.00
2018-11-13T10:10:57.154Z,99942.00
2018-11-13T10:12:01.026Z,99939.00
2018-11-13T10:13:04.510Z,99951.00
2018-11-13T10:14:08.275Z,99946.00
2018-11-13T10:15:12.350Z,99941.00
2018-11-13T10:16:16.064Z,99946.00
2018-11-13T10:17:19.669Z,99940.00
2018-11-13T10:18:23.633Z,99949.00
2018-11-13T10:19:27.072Z,99948.00
2018-11-13T10:20:33.494Z,99954.00
2018-11-13T10:21:37.211Z,99945.00
2018-11-13T10:22:40.806Z,99945.00
2018-11-13T10:23:44.511Z,99942.00
2018-11-13T10:24:47.981Z,99940.00
2018-11-13T10:25:51.407Z,99942.00
2018-11-13T10:26:55.271Z,99942.00
2018-11-13T10:27:58.790Z,99945.00
2018-11-13T10:29:02.567Z,99948.00
2018-11-13T10:30:06.153Z,99948.00
2018-11-13T10:31:09.928Z,99949.00
2018-11-13T10:32:13.619Z,99949.00
2018-11-13T10:33:17.528Z,99949.00
2018-11-13T10:34:21.128Z,99945.00
2018-11-13T10:35:25.891Z,99948.00
2018-11-13T10:36:29.827Z,99949.00
2018-11-13T10:37:33.354Z,99948.00
2018-11-13T10:38:37.134Z,99946.00
2018-11-13T10:39:40.722Z,99951.00
2018-11-13T10:40:44.665Z,99950.00
2018-11-13T10:41:48.286Z,99952.00
2018-11-13T10:42:52.430Z,99950.00
2018-11-13T10:43:55.932Z,99955.00
2018-11-13T10:44:59.787Z,99945.00
2018-11-13T10:46:03.287Z,99944.00
2018-11-13T10:47:06.808Z,99948.00
2018-11-13T10:48:10.600Z,99945.00
2018-11-13T10:49:14.341Z,99945.00
2018-11-13T10:50:18.398Z,99945.00
2018-11-13T10:51:21.970Z,99939.00
2018-11-13T10:52:25.538Z,99937.00
2018-11-13T10:53:28.946Z,99939.00
2018-11-13T10:54:32.521Z,99942.00
2018-11-13T10:55:36.037Z,99941.00
2018-11-13T10:56:39.737Z,99943.00
2018-11-13T10:57:43.735Z,99949.00
2018-11-13T10:58:47.318Z,99952.00
2018-11-13T10:59:51.106Z,99956.00
2018-11-13T11:01:58.235Z,99962.00
2018-11-13T11:03:12.442Z,99973.00
2018-11-13T11:04:20.804Z,99975.00
2018-11-13T11:05:27.358Z,99984.00
2018-11-13T11:06:31.171Z,99985.00
2018-11-13T11:07:35.071Z,99999.00
2018-11-13T11:08:38.728Z,99998.00
2018-11-13T11:09:42.579Z,100004.00
2018-11-13T11:10:46.271Z,100003.00
2018-11-13T11:11:50.175Z,100008.00
2018-11-13T11:12:53.908Z,100004.00
2018-11-13T11:13:57.954Z,100014.00
2018-11-13T11:15:01.498Z,100015.00
2018-11-13T11:16:05.189Z,100019.00
2018-11-13T11:17:08.757Z,100019.00
2018-11-13T11:18:12.569Z,100026.00
2018-11-13T11:19:16.187Z,100027.00
2018-11-13T11:20:20.033Z,100025.00
2018-11-13T11:21:23.714Z,100030.00
2018-11-13T11:22:27.643Z,100029.00
2018-11-13T11:23:31.256Z,100035.00
2018-11-13T11:24:35.134Z,100042.00
2018-11-13T11:25:38.791Z,100036.00
2018-11-13T11:26:42.611Z,100035.00
2018-11-13T11:27:46.320Z,100043.00
2018-11-13T11:28:50.204Z,100047.00
2018-11-13T11:29:53.838Z,100045.00
2018-11-13T11:30:57.592Z,100041.00
2018-11-13T11:32:01.239Z,100046.00
2018-11-13T11:33:04.967Z,100046.00
2018-11-13T11:34:08.427Z,100045.00
2018-11-13T11:35:11.892Z,100050.00
2018-11-13T11:36:15.755Z,100047.00
2018-11-13T11:37:18.914Z,100050.00
2018-11-13T11:38:22.561Z,100054.00
2018-11-13T11:39:26.218Z,100055.00
2018-11-13T11:40:29.993Z,100055.00
2018-11-13T11:41:33.708Z,100062.00
2018-11-13T11:42:37.278Z,100062.00
2018-11-13T11:43:41.082Z,100065.00
2018-11-13T11:44:44.648Z,100074.00
2018-11-13T11:45:48.448Z,100072.00
2018-11-13T11:46:52.134Z,100072.00
2018-11-13T11:47:55.835Z,100077.00
2018-11-13T11:48:59.424Z,100078.00
2018-11-13T11:50:02.946Z,100077.00
2018-11-13T11:51:06.751Z,100084.00
2018-11-13T11:52:10.351Z,100085.00
2018-11-13T11:53:14.027Z,100088.00
2018-11-13T11:54:17.578Z,100082.00
2018-11-13T11:55:21.506Z,100077.00
2018-11-13T11:56:25.088Z,100081.00
2018-11-13T11:57:28.871Z,100083.00
2018-11-13T11:58:32.558Z,100084.00
2018-11-13T11:59:36.502Z,100088.00
2018-11-13T12:00:40.116Z,100083.00
2018-11-13T12:01:43.852Z,100087.00
2018-11-13T12:02:47.453Z,100085.00
2018-11-13T12:03:50.853Z,100084.00
2018-11-13T12:04:54.449Z,100084.00
2018-11-13T12:05:58.146Z,100089.00
2018-11-13T12:07:02.145Z,100095.00
2018-11-13T12:08:05.728Z,100093.00
2018-11-13T12:09:09.363Z,100084.00
2018-11-13T12:10:13.844Z,100082.00
2018-11-13T12:11:17.671Z,100077.00
2018-11-13T12:12:21.551Z,100071.00
2018-11-13T12:13:25.126Z,100069.00
2018-11-13T12:14:29.233Z,100082.00
2018-11-13T12:15:32.860Z,100072.00
2018-11-13T12:16:37.069Z,100065.00
2018-11-13T12:17:40.907Z,100064.00
2018-11-13T12:18:44.395Z,100061.00
2018-11-13T12:19:47.953Z,100054.00
2018-11-13T12:20:51.720Z,100052.00
2018-11-13T12:21:55.304Z,100050.00
2018-11-13T12:22:59.082Z,100050.00
2018-11-13T12:24:02.954Z,100054.00
2018-11-13T12:25:06.573Z,100053.00
2018-11-13T12:26:10.266Z,100047.00